Time;durP1;ratioP1;P1;durP2;ratioP2;P2;SDS_P1;SDS_P2;PMS_P1;PMS_P2;Temp;Humidity;BMP_temperature;BMP_pressure;BME280_temperature;BME280_humidity;BME280_pressure;Samples;Min_cycle;Max_cycle;Signal;HPM_P1;HPM_P2
2021/07/20 00:00:43;;;;;;;13.90;11.70;;;20.40;99.90;;;20.85;60.82;102055.59;4938317;29;20044;-63
2021/07/20 00:03:12;;;;;;;14.30;10.98;;;20.40;99.90;;;20.85;61.23;102063.69;4938266;29;20046;-64
2021/07/20 00:05:41;;;;;;;13.63;11.07;;;20.40;99.90;;;20.89;60.95;102065.31;4937901;29;20052;-63
2021/07/20 00:08:12;;;;;;;15.05;11.13;;;20.40;99.90;;;20.76;61.03;102064.78;4938070;29;20127;-63
2021/07/20 00:10:44;;;;;;;17.52;11.57;;;20.40;99.90;;;20.12;61.44;101987.63;4937810;29;20478;-63
2021/07/20 00:13:15;;;;;;;14.35;11.10;;;20.20;99.90;;;20.51;61.70;102067.25;4938067;29;20107;-63
2021/07/20 00:15:44;;;;;;;14.18;11.05;;;20.10;99.90;;;20.01;62.51;102031.81;4937667;29;20069;-63
2021/07/20 00:18:16;;;;;;;17.10;11.90;;;19.80;99.90;;;19.68;64.45;102057.66;4937976;29;20056;-63
2021/07/20 00:20:45;;;;;;;15.02;10.73;;;19.40;99.90;;;19.72;66.06;102068.28;4937917;29;20417;-63
2021/07/20 00:23:14;;;;;;;16.95;12.00;;;19.20;99.90;;;19.84;65.79;102069.78;4937594;29;20051;-63
2021/07/20 00:25:43;;;;;;;17.13;11.90;;;19.30;99.90;;;19.80;64.98;102063.63;4938099;29;20044;-63
2021/07/20 00:28:11;;;;;;;14.13;11.23;;;19.30;99.90;;;19.54;65.31;102059.75;4937424;29;20514;-63
2021/07/20 00:30:41;;;;;;;16.73;11.80;;;19.10;99.90;;;19.68;64.94;102054.97;4937461;29;20043;-63
2021/07/20 00:33:13;;;;;;;19.40;12.23;;;19.20;99.90;;;19.60;65.20;102060.53;4937672;29;20375;-63
2021/07/20 00:35:42;;;;;;;16.95;11.75;;;19.20;99.90;;;19.50;65.50;102060.75;4937557;29;20058;-63
2021/07/20 00:38:12;;;;;;;17.00;12.02;;;19.10;99.90;;;19.49;65.66;102059.00;4937599;29;20047;-63
2021/07/20 00:40:47;;;;;;;17.77;11.82;;;19.10;99.90;;;19.51;65.70;102059.84;4937271;29;20549;-63
2021/07/20 00:43:16;;;;;;;19.02;12.43;;;19.10;99.90;;;19.67;65.52;102062.13;4937424;29;20063;-64
2021/07/20 00:45:47;;;;;;;16.25;11.73;;;19.20;99.90;;;19.49;65.87;102050.94;4920378;29;20450;-63
2021/07/20 00:48:18;;;;;;;15.00;11.70;;;19.20;99.90;;;19.61;65.91;102061.38;4937179;29;20050;-62
2021/07/20 00:50:50;;;;;;;14.68;11.30;;;19.20;99.90;;;19.57;66.05;102033.72;4937197;29;20054;-64
2021/07/20 00:53:19;;;;;;;18.75;12.77;;;19.30;99.90;;;19.64;65.56;102034.47;4937246;29;20044;-63
2021/07/20 00:55:57;;;;;;;18.42;12.25;;;19.30;99.90;;;19.80;65.52;102057.38;4920242;29;20122;-63
2021/07/20 00:58:26;;;;;;;16.35;12.65;;;19.40;99.90;;;19.58;65.53;102062.34;4920082;29;20561;-63
2021/07/20 01:00:56;;;;;;;18.40;12.85;;;19.40;99.90;;;19.70;65.49;102066.56;4937408;29;20056;-63
2021/07/20 01:03:24;;;;;;;16.52;11.98;;;19.30;99.90;;;19.64;65.58;102055.97;4937092;29;20405;-63
2021/07/20 01:05:54;;;;;;;17.63;12.75;;;19.30;99.90;;;19.73;65.69;102069.16;4937075;29;20044;-63
2021/07/20 01:08:25;;;;;;;17.27;12.77;;;19.30;99.90;;;19.76;65.55;102066.44;4919996;29;20574;-63
2021/07/20 01:10:55;;;;;;;15.60;12.45;;;19.30;99.90;;;19.65;65.80;102063.09;4919808;29;20124;-63
2021/07/20 01:13:27;;;;;;;17.42;13.10;;;19.30;99.90;;;19.50;66.01;102063.44;4937128;29;20059;-63
2021/07/20 01:16:01;;;;;;;20.77;13.15;;;19.20;99.90;;;19.42;66.33;102060.03;4919413;29;20075;-63
2021/07/20 01:18:35;;;;;;;20.38;13.00;;;19.10;99.90;;;19.43;66.47;102056.44;4919829;29;20107;-63
2021/07/20 01:21:09;;;;;;;17.98;13.15;;;19.00;99.90;;;19.43;66.69;102054.66;4919739;29;20051;-63
2021/07/20 01:23:43;;;;;;;16.48;12.70;;;19.00;99.90;;;19.46;66.62;102051.00;4919724;29;20139;-63
2021/07/20 01:26:14;;;;;;;21.02;13.60;;;19.10;99.90;;;19.57;66.59;102049.84;4919690;29;20052;-63
2021/07/20 01:28:45;;;;;;;20.92;12.82;;;19.10;99.90;;;19.48;66.38;102051.84;4936685;29;20048;-63
2021/07/20 01:31:20;;;;;;;19.63;13.05;;;19.20;99.90;;;19.35;66.82;102050.34;4919488;29;20051;-63
2021/07/20 01:33:54;;;;;;;21.73;14.05;;;19.00;99.90;;;19.18;67.44;102041.75;4919280;29;20441;-63
2021/07/20 01:36:28;;;;;;;18.40;13.30;;;18.90;99.90;;;19.22;67.43;102043.44;4936291;29;20056;-63
2021/07/20 01:39:03;;;;;;;19.67;13.70;;;18.80;99.90;;;19.22;67.67;102040.78;4936580;29;20055;-63
2021/07/20 01:41:34;;;;;;;20.17;13.75;;;18.80;99.90;;;18.83;68.16;102004.94;4936562;29;20047;-63
2021/07/20 01:44:10;;;;;;;20.23;13.90;;;18.70;99.90;;;19.23;67.93;102046.09;4919419;29;20047;-64
2021/07/20 01:46:41;;;;;;;17.88;13.35;;;18.80;99.90;;;19.11;68.00;102042.78;4919386;29;20055;-63
2021/07/20 01:49:15;;;;;;;17.92;13.40;;;18.80;99.90;;;19.13;68.18;102046.31;4919367;29;20433;-63
2021/07/20 01:51:46;;;;;;;18.50;13.20;;;18.70;99.90;;;19.28;68.10;102040.66;4919345;29;20048;-63
2021/07/20 01:54:21;;;;;;;19.40;14.45;;;18.90;99.90;;;19.32;67.78;102042.31;4919559;29;20063;-63
2021/07/20 01:56:50;;;;;;;22.05;13.48;;;19.00;99.90;;;19.34;67.40;102033.34;4918763;29;20051;-63
2021/07/20 01:59:26;;;;;;;17.02;12.48;;;19.00;99.90;;;19.48;67.63;102043.78;4919155;29;20051;-64
2021/07/20 02:02:29;;;;;;;20.30;13.27;;;19.10;99.90;;;19.55;67.35;102050.81;4936225;29;20049;-63
2021/07/20 02:10:43;;;;;;;20.20;14.20;;;19.20;99.90;;;19.54;67.06;102055.28;4918977;29;20494;-64
2021/07/20 02:13:27;;;;;;;18.55;13.95;;;19.20;99.90;;;18.89;67.36;101967.28;4919157;29;20070;-63
2021/07/20 02:16:14;;;;;;;19.85;13.90;;;19.10;99.90;;;19.16;67.85;102057.88;4918821;29;20413;-64
2021/07/20 02:19:01;;;;;;;20.55;13.88;;;18.90;99.90;;;18.88;68.81;102046.81;4919064;29;20120;-63
2021/07/20 02:21:53;;;;;;;20.63;13.95;;;18.60;99.90;;;18.63;70.04;102050.88;4928773;29;20494;-64
2021/07/20 02:24:28;;;;;;;22.85;14.13;;;18.40;99.90;;;18.77;70.18;102048.84;4918812;29;20055;-63
2021/07/20 02:27:02;;;;;;;22.02;14.40;;;18.40;99.90;;;18.93;69.86;102044.91;4918726;29;20051;-63
2021/07/20 02:29:34;;;;;;;20.20;14.18;;;18.50;99.90;;;18.78;70.12;102050.59;4918853;29;20059;-63
2021/07/20 02:32:08;;;;;;;22.50;14.40;;;18.40;99.90;;;18.70;70.03;102046.28;4918855;29;20528;-63
2021/07/20 02:34:39;;;;;;;20.25;14.40;;;18.40;99.90;;;18.41;70.99;102052.13;4935552;29;20082;-63
2021/07/20 02:37:08;;;;;;;23.55;14.75;;;18.10;99.90;;;18.33;71.65;102054.06;4918863;29;20185;-63
2021/07/20 02:39:39;;;;;;;21.67;14.20;;;18.00;99.90;;;18.37;71.54;102052.25;4918892;29;20110;-63
2021/07/20 02:42:09;;;;;;;20.70;14.93;;;18.10;99.90;;;18.33;71.72;102050.53;4918796;29;20052;-63
2021/07/20 02:44:40;;;;;;;26.05;14.63;;;18.00;99.90;;;18.31;71.84;102049.66;4918818;29;20110;-63
2021/07/20 02:47:10;;;;;;;22.95;14.73;;;18.00;99.90;;;18.28;71.80;102049.69;4918799;29;20482;-63
2021/07/20 02:49:40;;;;;;;24.00;15.77;;;17.90;99.90;;;18.01;72.63;102051.03;4918645;29;20095;-63
2021/07/20 02:52:10;;;;;;;24.45;15.60;;;17.70;99.90;;;17.96;72.75;102016.28;4918444;29;20292;-63
2021/07/20 02:54:41;;;;;;;22.55;15.57;;;17.70;99.90;;;18.18;72.58;102048.97;4918412;29;20103;-63
2021/07/20 02:57:16;;;;;;;26.50;15.95;;;17.80;99.90;;;18.27;72.28;102051.50;4918704;29;20135;-63
2021/07/20 02:59:53;;;;;;;21.95;15.57;;;17.90;99.90;;;18.13;72.36;102053.53;4918685;29;20103;-63
2021/07/20 03:02:42;;;;;;;23.33;14.38;;;17.80;99.90;;;17.87;73.08;102051.25;4918545;29;20613;-64
2021/07/20 03:05:14;;;;;;;24.50;15.90;;;17.60;99.90;;;17.81;73.46;102042.44;4918669;29;20047;-63
2021/07/20 03:07:50;;;;;;;25.03;16.23;;;17.50;99.90;;;17.91;73.39;102052.09;4918729;29;20052;-63
2021/07/20 03:10:24;;;;;;;23.13;16.10;;;17.50;99.90;;;18.04;73.12;102048.31;4922144;29;20048;-63
2021/07/20 03:12:59;;;;;;;24.83;15.77;;;17.70;99.90;;;18.07;72.83;102053.63;4922032;29;20051;-63
2021/07/20 03:15:30;;;;;;;25.80;16.13;;;17.70;99.90;;;17.98;72.69;102049.28;4921785;29;20067;-63
2021/07/20 03:18:07;;;;;;;23.50;15.55;;;17.70;99.90;;;17.75;73.05;102038.06;4922006;29;20047;-63
2021/07/20 03:20:39;;;;;;;24.65;16.23;;;17.60;99.90;;;17.76;73.51;102049.66;4921939;29;20044;-63
2021/07/20 03:23:12;;;;;;;26.73;16.05;;;17.50;99.90;;;17.66;73.93;102053.38;4938974;29;20058;-64
2021/07/20 03:25:45;;;;;;;25.80;15.82;;;17.40;99.90;;;17.71;73.70;102047.03;4921856;29;20056;-63
2021/07/20 03:28:18;;;;;;;28.92;16.95;;;17.40;99.90;;;17.77;73.57;102048.72;4921879;29;20409;-64
2021/07/20 03:30:48;;;;;;;24.83;15.68;;;17.40;99.90;;;17.75;73.66;102047.91;4938511;29;20541;-63
2021/07/20 03:33:21;;;;;;;29.27;15.57;;;17.40;99.90;;;17.80;72.99;102057.63;4938458;29;20043;-63
2021/07/20 03:36:12;;;;;;;28.38;16.85;;;17.50;99.90;;;17.72;73.41;102050.59;4937952;29;20498;-63
2021/07/20 03:38:44;;;;;;;28.13;16.45;;;17.40;99.90;;;17.66;73.38;102043.56;4921654;29;20052;-63
2021/07/20 03:41:16;;;;;;;24.55;15.77;;;17.40;99.90;;;17.66;73.47;102048.00;4921547;29;20062;-63
2021/07/20 03:43:49;;;;;;;26.50;15.90;;;17.40;99.90;;;17.53;73.86;102041.97;4921481;29;20052;-63
2021/07/20 03:46:17;;;;;;;29.38;16.27;;;17.20;99.90;;;17.58;73.61;102053.47;4921545;29;20055;-63
2021/07/20 03:48:47;;;;;;;27.13;16.52;;;17.30;99.90;;;17.71;73.30;102051.53;4938507;29;20036;-63
2021/07/20 03:51:30;;;;;;;28.83;16.73;;;17.30;99.90;;;17.67;73.00;102045.31;4921283;29;20048;-63
2021/07/20 03:54:00;;;;;;;29.42;16.92;;;17.40;99.90;;;17.57;73.22;102046.38;4938417;29;20054;-63
2021/07/20 03:56:31;;;;;;;27.58;17.58;;;17.20;99.90;;;17.61;73.09;102045.44;4921277;29;20059;-63
2021/07/20 03:59:08;;;;;;;27.50;16.48;;;17.30;99.90;;;17.61;72.91;102041.84;4921233;29;20051;-63
2021/07/20 04:02:00;;;;;;;32.38;18.55;;;17.30;99.90;;;17.61;72.92;102055.25;4937742;29;20055;-63
2021/07/20 04:04:38;;;;;;;27.42;17.33;;;17.30;99.90;;;17.59;72.83;102051.69;4921062;29;20052;-64
2021/07/20 04:07:14;;;;;;;31.00;17.45;;;17.30;99.90;;;17.71;72.58;102059.56;4921044;29;20128;-63
2021/07/20 04:10:10;;;;;;;26.63;17.05;;;17.30;99.90;;;17.36;73.13;102046.63;4921051;29;20532;-62
2021/07/20 04:13:12;;;;;;;27.70;17.70;;;17.20;99.90;;;17.30;73.07;102035.13;4921033;29;20055;-63
2021/07/20 04:15:57;;;;;;;31.25;18.50;;;17.10;99.90;;;17.23;73.15;102028.09;4920701;29;20063;-62
2021/07/20 04:18:29;;;;;;;32.35;18.80;;;17.10;99.90;;;17.38;73.25;102050.16;4920489;29;20430;-63
2021/07/20 04:20:59;;;;;;;29.88;18.13;;;17.10;99.90;;;17.25;73.54;102045.88;4920518;29;20482;-62
2021/07/20 04:23:28;;;;;;;25.98;17.23;;;17.00;99.90;;;17.24;73.65;102045.91;4937731;29;20383;-62
2021/07/20 04:26:10;;;;;;;31.58;18.40;;;16.90;99.90;;;17.29;73.54;102049.38;4920790;29;20468;-62
2021/07/20 04:28:42;;;;;;;29.98;18.02;;;17.00;99.90;;;17.24;73.72;102045.91;4920692;29;20056;-63
2021/07/20 04:31:20;;;;;;;36.83;18.15;;;16.80;99.90;;;16.97;74.27;102053.38;4920515;29;20417;-62
2021/07/20 04:33:51;;;;;;;28.58;17.45;;;16.70;99.90;;;16.80;74.94;102049.13;4920494;29;20067;-62
2021/07/20 04:36:40;;;;;;;30.20;17.55;;;16.50;99.90;;;16.93;74.79;102061.44;4937369;29;20095;-63
2021/07/20 04:39:35;;;;;;;26.42;16.98;;;16.50;99.90;;;16.87;74.37;102014.28;4931629;29;20059;-63
2021/07/20 04:42:10;;;;;;;29.58;17.80;;;16.70;99.90;;;17.13;74.05;102057.59;4937517;29;20078;-62
2021/07/20 04:44:41;;;;;;;28.27;16.77;;;16.80;99.90;;;17.23;73.61;102070.88;4920638;29;20050;-62
2021/07/20 04:47:45;;;;;;;28.88;17.35;;;16.90;99.90;;;17.19;73.59;102063.81;4933239;29;20048;-63
2021/07/20 04:50:32;;;;;;;29.00;17.55;;;16.80;99.90;;;17.27;73.38;102061.91;4920237;29;20520;-64
2021/07/20 04:53:04;;;;;;;30.67;17.77;;;16.90;99.90;;;16.96;73.14;101998.13;4920284;29;20416;-63
2021/07/20 04:55:35;;;;;;;28.45;17.13;;;17.00;99.90;;;17.39;73.08;102064.41;4920234;29;20484;-62
2021/07/20 04:58:04;;;;;;;27.20;17.38;;;17.00;99.90;;;17.39;73.15;102062.63;4937290;29;20054;-63
2021/07/20 05:00:34;;;;;;;27.02;17.00;;;17.00;99.90;;;16.98;73.62;102017.69;4937408;29;20047;-64
2021/07/20 05:03:06;;;;;;;24.23;17.30;;;17.00;99.90;;;17.32;73.49;102068.97;4919973;29;20056;-62
2021/07/20 05:05:39;;;;;;;30.35;18.73;;;17.00;99.90;;;17.32;73.40;102071.66;4937125;29;20382;-62
2021/07/20 05:08:15;;;;;;;29.27;17.98;;;16.90;99.90;;;17.48;73.03;102067.88;4919976;29;20123;-62
2021/07/20 05:10:55;;;;;;;29.55;18.52;;;17.00;99.90;;;17.44;72.90;102038.50;4919957;29;20054;-62
2021/07/20 05:13:28;;;;;;;27.90;17.95;;;17.20;99.90;;;17.71;72.54;102071.13;4919630;29;20052;-62
2021/07/20 05:16:03;;;;;;;26.52;18.08;;;17.30;99.90;;;17.68;72.78;102073.88;4936862;29;20068;-63
2021/07/20 05:18:48;;;;;;;31.70;18.50;;;17.40;99.90;;;17.58;73.24;102068.66;4919725;29;20078;-63
2021/07/20 05:21:46;;;;;;;26.40;16.23;;;17.20;99.90;;;17.52;73.43;102087.47;4936215;29;20047;-62
2021/07/20 05:24:20;;;;;;;29.05;17.00;;;17.20;99.90;;;17.51;73.50;102065.19;4936449;29;20484;-62
2021/07/20 05:26:55;;;;;;;27.70;17.38;;;17.20;99.90;;;17.41;74.30;102062.59;4919573;29;20090;-63
2021/07/20 05:29:25;;;;;;;24.30;15.73;;;17.10;99.90;;;17.33;73.17;102043.09;4919564;29;20051;-63
2021/07/20 05:32:00;;;;;;;30.05;17.75;;;17.10;99.90;;;17.48;74.16;102075.91;4918652;29;20051;-63
2021/07/20 05:34:31;;;;;;;25.85;16.75;;;17.10;99.90;;;17.44;73.74;102070.63;4919264;29;20043;-62
2021/07/20 05:37:00;;;;;;;;;;;17.10;99.90;;;16.85;74.03;102012.53;4936624;29;20434;-63
2021/07/20 05:39:40;;;;;;;25.98;16.35;;;16.90;99.90;;;17.36;74.05;102069.81;4919153;29;20308;-63
2021/07/20 05:42:28;;;;;;;27.95;16.58;;;17.00;99.90;;;17.46;73.54;102071.47;4936430;29;20095;-63
2021/07/20 05:45:02;;;;;;;26.92;17.23;;;17.10;99.90;;;17.58;73.30;102069.53;4919357;29;20051;-63
2021/07/20 05:47:31;;;;;;;;;;;17.20;99.90;;;17.81;73.00;102071.88;4919744;29;20059;-63
2021/07/20 05:50:07;;;;;;;28.45;16.30;;;17.50;99.90;;;17.77;73.43;102071.03;4936262;29;19927;-64
2021/07/20 05:52:59;;;;;;;24.60;15.32;;;17.40;99.90;;;17.92;73.29;102070.81;4934269;29;20052;-63
2021/07/20 05:55:34;;;;;;;28.30;15.98;;;17.50;99.90;;;17.92;72.11;102076.16;4919175;29;20057;-66
2021/07/20 05:58:04;;;;;;;25.98;14.63;;;17.60;99.90;;;18.07;71.43;102083.09;4918954;29;20079;-64
2021/07/20 06:00:33;;;;;;;25.27;15.68;;;17.70;99.90;;;17.69;72.31;101987.28;4919152;29;20052;-65
2021/07/20 06:03:16;;;;;;;24.27;15.40;;;17.80;99.90;;;18.16;71.10;102058.81;4918893;29;20051;-65
2021/07/20 06:05:49;;;;;;;27.55;15.30;;;17.90;99.90;;;18.31;70.90;102071.94;4935785;29;20486;-63
2021/07/20 06:08:19;;;;;;;23.77;15.40;;;18.00;99.90;;;18.46;70.81;102089.63;4935937;29;20068;-65
2021/07/20 06:10:54;;;;;;;25.33;15.90;;;18.00;99.90;;;18.65;71.29;102097.31;4936148;29;20056;-63
2021/07/20 06:13:26;;;;;;;20.95;14.65;;;18.20;99.90;;;18.70;69.47;102087.38;4935931;29;20040;-63
2021/07/20 06:15:56;;;;;;;17.63;13.73;;;18.30;99.90;;;18.75;68.67;102084.63;4936176;29;20442;-62
2021/07/20 06:18:25;;;;;;;22.00;14.40;;;18.40;99.90;;;18.73;69.03;102086.44;4935948;29;20040;-63
2021/07/20 06:20:58;;;;;;;22.80;14.52;;;18.40;99.90;;;18.54;68.66;102064.44;4918976;29;20060;-64
2021/07/20 06:23:33;;;;;;;23.63;14.52;;;18.30;99.90;;;18.77;69.18;102089.06;4936086;29;20059;-64
2021/07/20 06:26:03;;;;;;;19.60;13.23;;;18.40;99.90;;;18.73;67.61;102099.84;4936004;29;20486;-64
2021/07/20 06:28:31;;;;;;;21.17;14.23;;;18.40;99.90;;;18.58;67.58;102095.63;4935962;29;20478;-63
2021/07/20 06:31:00;;;;;;;21.65;13.10;;;18.30;99.90;;;18.39;67.49;102093.28;4935980;29;20058;-64
2021/07/20 06:33:29;;;;;;;18.85;13.68;;;18.20;99.90;;;18.55;67.89;102095.69;4918524;29;20079;-63
2021/07/20 06:36:02;;;;;;;25.13;14.98;;;18.20;99.90;;;18.67;68.77;102103.53;4935998;29;20416;-65
2021/07/20 06:38:32;;;;;;;19.38;13.05;;;18.20;99.90;;;18.53;69.20;102056.44;4935798;29;20079;-65
2021/07/20 06:41:01;;;;;;;;;;;18.30;99.90;;;18.92;67.01;102102.16;4936283;29;20090;-64
2021/07/20 06:43:34;;;;;;;19.15;12.32;;;18.50;99.90;;;19.00;65.29;102106.47;4939209;29;19969;-65
2021/07/20 06:46:03;;;;;;;22.60;12.82;;;18.70;99.90;;;18.91;65.06;102113.78;4939498;29;20061;-63
2021/07/20 06:48:33;;;;;;;18.50;12.30;;;18.60;99.90;;;18.90;65.80;102103.09;4922424;29;20054;-64
2021/07/20 06:51:02;;;;;;;19.23;12.43;;;18.60;99.90;;;19.03;65.06;102090.34;4939523;29;20134;-62
2021/07/20 06:53:32;;;;;;;19.60;12.73;;;18.70;99.90;;;18.98;64.78;102100.25;4939450;29;20135;-61
2021/07/20 06:56:04;;;;;;;17.00;12.57;;;18.60;99.90;;;19.22;63.62;102102.47;4939490;29;20298;-61
2021/07/20 06:58:35;;;;;;;15.13;11.63;;;18.80;99.90;;;19.27;62.34;102103.25;4939422;29;20082;-62
2021/07/20 07:01:05;;;;;;;16.33;12.18;;;18.90;99.90;;;19.41;62.44;102103.91;4922248;29;20059;-62
2021/07/20 07:03:41;;;;;;;17.45;12.43;;;19.10;99.90;;;19.21;62.48;102087.28;4938973;29;20082;-63
2021/07/20 07:06:13;;;;;;;15.82;11.52;;;19.00;99.90;;;19.43;64.38;102110.13;4939326;29;20054;-61
2021/07/20 07:08:43;;;;;;;18.85;12.98;;;19.00;99.90;;;19.49;63.19;102116.22;4939556;29;20482;-62
2021/07/20 07:11:15;;;;;;;16.02;11.65;;;19.10;99.90;;;19.49;62.81;102116.22;4939251;29;20050;-61
2021/07/20 07:13:44;;;;;;;16.92;12.32;;;19.10;99.90;;;19.63;62.36;102110.56;4939094;29;20054;-62
2021/07/20 07:16:14;;;;;;;16.42;12.35;;;19.30;99.90;;;19.66;61.84;102119.47;4938806;29;20159;-62
2021/07/20 07:18:43;;;;;;;16.60;12.32;;;19.40;99.90;;;19.65;60.94;102122.16;4922026;29;20059;-62
2021/07/20 07:21:15;;;;;;;18.73;12.73;;;19.40;99.90;;;19.85;62.20;102125.28;4938869;29;20099;-62
2021/07/20 07:23:45;;;;;;;16.02;12.05;;;19.50;99.90;;;20.04;60.72;102121.25;4938926;29;20043;-63
2021/07/20 07:26:14;;;;;;;15.43;11.75;;;19.70;99.90;;;19.97;61.56;102132.19;4938725;29;20042;-63
2021/07/20 07:28:45;;;;;;;16.90;12.27;;;19.70;99.90;;;19.78;60.51;102129.03;4938772;29;20098;-63
2021/07/20 07:31:15;;;;;;;;;;;19.50;99.90;;;19.27;61.09;102025.44;4938782;29;20032;-65
2021/07/20 07:33:44;;;;;;;16.15;11.75;;;19.50;99.90;;;19.93;60.71;102133.16;4938638;29;19926;-62
2021/07/20 07:36:17;;;;;;;15.63;11.83;;;19.50;99.90;;;20.01;60.56;102131.19;4938691;29;20049;-63
2021/07/20 07:38:48;;;;;;;16.88;11.73;;;19.60;99.90;;;20.33;60.49;102137.59;4938607;29;20106;-63
2021/07/20 07:41:17;;;;;;;15.77;10.93;;;19.90;99.90;;;20.35;59.15;102129.50;4938675;29;20052;-63
2021/07/20 07:43:47;;;;;;;16.83;12.35;;;20.00;99.90;;;20.52;59.14;102128.16;4938313;29;20043;-62
2021/07/20 07:46:18;;;;;;;17.50;11.63;;;20.20;99.90;;;20.57;58.34;102128.06;4938567;29;20139;-63
2021/07/20 07:48:47;;;;;;;15.68;11.77;;;20.30;99.90;;;20.59;57.57;102131.59;4921254;29;20136;-62
2021/07/20 07:51:19;;;;;;;16.52;11.32;;;20.30;99.90;;;19.85;58.15;102025.91;4938474;29;20047;-63
2021/07/20 07:53:48;;;;;;;14.43;10.68;;;20.20;99.90;;;20.41;57.70;102138.31;4937708;29;20107;-62
2021/07/20 07:56:17;;;;;;;14.93;11.55;;;20.10;99.90;;;20.42;57.95;102129.31;4938329;29;20066;-62
2021/07/20 07:58:46;;;;;;;13.27;10.68;;;20.10;99.90;;;20.44;57.90;102129.28;4938369;29;20044;-62
2021/07/20 08:01:16;;;;;;;15.50;11.90;;;20.10;99.90;;;20.39;58.79;102136.56;4938290;29;20050;-63
2021/07/20 08:03:48;;;;;;;15.13;11.55;;;20.00;99.90;;;20.46;59.27;102139.06;4938406;29;20047;-62
2021/07/20 08:06:20;;;;;;;15.52;11.90;;;20.10;99.90;;;20.64;57.98;102141.31;4920894;29;20573;-63
2021/07/20 08:09:10;;;;;;;14.95;11.82;;;20.30;99.90;;;20.84;57.76;102138.09;4938130;29;20040;-70
2021/07/20 08:11:40;;;;;;;18.75;11.10;;;20.50;99.90;;;21.30;57.86;102127.88;4921030;29;20058;-66
2021/07/20 08:14:08;;;;;;;14.30;10.93;;;20.90;99.90;;;21.38;56.51;102124.97;4938014;29;20051;-64
2021/07/20 08:16:43;;;;;;;16.55;10.88;;;21.10;99.90;;;21.14;56.04;102125.63;4937387;29;20078;-64
2021/07/20 08:19:14;;;;;;;15.00;11.50;;;21.00;99.90;;;21.37;56.35;102142.03;4937878;29;20051;-61
2021/07/20 08:21:45;;;;;;;14.82;11.30;;;21.00;99.90;;;21.34;56.83;102134.03;4937923;29;20047;-63
2021/07/20 08:24:15;;;;;;;14.43;11.07;;;21.00;99.90;;;21.21;55.94;102127.25;4937815;29;20048;-63
2021/07/20 08:26:49;;;;;;;17.17;12.10;;;20.90;99.90;;;20.95;56.09;102108.19;4937717;29;20102;-64
2021/07/20 08:29:22;;;;;;;15.18;10.65;;;20.80;99.90;;;21.26;55.72;102128.00;4937655;29;20082;-66
2021/07/20 08:31:57;;;;;;;16.23;11.73;;;20.90;99.90;;;21.41;56.46;102144.59;4920714;29;20059;-65
2021/07/20 08:34:28;;;;;;;14.63;11.48;;;21.10;99.90;;;21.43;55.05;102136.47;4937765;29;20044;-66
2021/07/20 08:37:00;;;;;;;14.50;11.27;;;21.10;99.90;;;21.39;56.47;102126.72;4937641;29;20051;-66
2021/07/20 08:39:31;;;;;;;14.77;11.10;;;21.00;99.90;;;21.66;57.48;102139.38;4937358;29;20442;-65
2021/07/20 08:42:16;;;;;;;13.80;11.23;;;21.30;99.90;;;21.64;56.63;102130.44;4937348;29;20689;-66
2021/07/20 08:45:13;;;;;;;14.73;11.13;;;21.30;99.90;;;22.00;56.44;102132.06;4937314;29;20405;-63
2021/07/20 08:48:16;;;;;;;14.48;11.30;;;21.50;99.90;;;21.81;55.68;102136.25;4937211;29;20061;-67
2021/07/20 08:50:57;;;;;;;121.65;93.55;;;21.50;99.90;;;22.14;56.58;102131.63;4934658;29;20051;-67
2021/07/20 08:53:36;;;;;;;43.38;34.13;;;21.70;99.90;;;22.07;54.59;102112.06;4920231;29;20050;-66
2021/07/20 08:56:06;;;;;;;17.13;12.23;;;21.80;99.90;;;22.24;53.75;102131.28;4920222;29;20048;-63
2021/07/20 08:58:39;;;;;;;14.27;10.83;;;21.90;99.90;;;22.24;54.66;102130.41;4919932;29;20040;-63
2021/07/20 09:01:15;;;;;;;16.35;10.98;;;22.00;99.90;;;21.89;53.61;102095.59;4920093;29;20245;-63
2021/07/20 09:03:56;;;;;;;13.73;11.63;;;21.90;99.90;;;22.47;53.89;102140.44;4937099;29;20474;-63
2021/07/20 09:06:30;;;;;;;14.93;12.05;;;22.00;99.90;;;22.52;53.21;102139.34;4936155;29;20048;-63
2021/07/20 09:09:07;;;;;;;14.02;11.65;;;22.20;99.90;;;22.28;53.48;102127.53;4937128;29;20052;-64
2021/07/20 09:11:45;;;;;;;13.90;10.95;;;22.10;99.90;;;22.44;52.24;102133.31;4937029;29;20051;-63
2021/07/20 09:14:25;;;;;;;17.35;11.65;;;22.00;99.90;;;22.18;53.29;102139.56;4936697;29;20126;-63
2021/07/20 09:17:05;;;;;;;17.67;12.43;;;21.80;99.90;;;22.15;53.34;102134.28;4936721;29;20074;-64
2021/07/20 09:19:44;;;;;;;68.22;56.42;;;21.80;99.90;;;22.29;52.63;102142.81;4936904;29;20099;-61
2021/07/20 09:22:19;;;;;;;87.53;71.82;;;21.90;99.90;;;22.30;52.91;102141.84;4919715;29;20048;-64
2021/07/20 09:24:59;;;;;;;17.40;12.20;;;21.90;99.90;;;22.48;53.67;102123.31;4936715;29;20118;-62
2021/07/20 09:27:37;;;;;;;17.20;12.30;;;22.20;99.90;;;22.87;54.32;102151.66;4936657;29;20043;-60
2021/07/20 09:30:16;;;;;;;14.60;12.18;;;22.40;99.90;;;22.89;51.10;102148.00;4919539;29;20051;-61
2021/07/20 09:33:10;;;;;;;14.98;11.43;;;22.60;99.90;;;23.09;52.57;102141.88;4936368;29;20039;-62
2021/07/20 09:35:50;;;;;;;17.95;11.48;;;22.70;99.90;;;23.13;52.76;102146.25;4936290;29;20051;-61
2021/07/20 09:38:41;;;;;;;18.27;11.82;;;22.80;99.90;;;23.40;53.56;102147.09;4936385;29;20051;-62
2021/07/20 09:41:23;;;;;;;14.77;12.25;;;23.00;99.90;;;23.66;50.55;102147.88;4936495;29;20050;-62
2021/07/20 09:44:04;;;;;;;15.95;12.20;;;23.30;99.90;;;23.98;50.38;102144.78;4936479;29;20056;-61
2021/07/20 09:46:42;;;;;;;17.35;12.57;;;23.60;99.90;;;23.79;50.85;102062.66;4936435;29;20055;-62
2021/07/20 09:49:19;;;;;;;14.68;11.80;;;23.90;99.90;;;23.90;50.18;102144.22;4919414;29;20056;-61
2021/07/20 09:52:13;;;;;;;14.15;12.10;;;23.70;99.90;;;23.78;50.43;102131.19;4919353;29;20083;-64
2021/07/20 09:55:00;;;;;;;36.00;27.83;;;23.60;99.90;;;23.70;49.94;102135.09;4936242;29;20056;-63
2021/07/20 09:57:48;;;;;;;21.20;15.35;;;23.50;99.90;;;23.72;50.35;102136.81;4936245;29;20051;-63
2021/07/20 10:00:21;;;;;;;15.95;12.27;;;23.40;99.90;;;23.80;51.07;102142.81;4936117;29;20052;-63
2021/07/20 10:03:06;;;;;;;15.30;12.30;;;23.40;99.90;;;23.86;51.39;102137.19;4936028;29;20047;-61
2021/07/20 10:05:44;;;;;;;16.98;12.05;;;23.50;99.90;;;24.24;50.12;102146.47;4936103;29;20056;-60
2021/07/20 10:08:25;;;;;;;14.90;12.27;;;23.80;99.90;;;24.53;51.24;102142.56;4936106;29;20086;-61
2021/07/20 10:11:11;;;;;;;15.90;12.50;;;24.10;99.90;;;24.50;47.38;102151.72;4936056;29;20427;-60
2021/07/20 10:14:02;;;;;;;18.02;11.98;;;24.30;99.90;;;24.29;47.88;102146.31;4935984;29;20058;-60
2021/07/20 10:16:44;;;;;;;15.25;11.30;;;24.10;99.90;;;24.32;48.61;102138.06;4935456;29;20056;-61
2021/07/20 10:19:22;;;;;;;18.25;11.55;;;24.00;99.90;;;24.62;50.18;102142.22;4935872;29;20110;-60
2021/07/20 10:21:55;;;;;;;18.00;11.93;;;24.20;99.90;;;24.63;47.68;102142.13;4918938;29;20052;-61
2021/07/20 10:24:28;;;;;;;17.63;12.55;;;24.30;99.90;;;24.28;49.43;102128.28;4935989;29;20048;-60
2021/07/20 10:27:04;;;;;;;14.48;11.65;;;24.10;99.90;;;23.94;50.42;102135.03;4918892;29;20506;-59
2021/07/20 10:29:51;;;;;;;15.88;12.90;;;23.70;99.90;;;24.30;50.98;102138.13;4935666;29;20051;-60
2021/07/20 10:32:25;;;;;;;15.57;12.15;;;23.80;99.90;;;24.56;48.63;102120.81;4918844;29;20060;-60
2021/07/20 10:34:59;;;;;;;17.27;12.60;;;24.30;99.90;;;24.55;48.74;102136.16;4935807;29;20052;-62
2021/07/20 10:37:30;;;;;;;16.35;12.85;;;24.30;99.90;;;23.97;49.42;102134.03;4935846;29;20054;-60